Spelterville, Indiana
Current Conditions -  °F | °C
As of 7:53 PM on Saturday 25 Oct 2014 (Local Time) from KHUF Reporting Station
Clear Clear  
Wind Chill: 67°   Ceiling: Unl
Heat Index: 67°   Visibility: 10mi
Dew Point: 48°   Wind: 6mph
Humidity: 51%   Direction: 290°WNW
Pressure: 29.96"   Gusts: NA
Location:  39.543°N, 87.3153°W
Report Text: KHUF 252353Z 29005KT 10SM CLR 19/09 A2996 RMK AO2 SLP145 T01940089 10261 20178 53002
Loading
Personal Weather Stations






























Interactive Weather Map
Tropical Storm Tracking
New forecast layout! Learn more

10-Day Weather Forecast

Advertisements
Track Severe Weather on mobile